Terminal Aerodrome Forecast
Issued by NWS Raleigh/Durham, NC

Home | Current Version | Previous Version | Text Only | Print | Product List | Glossary On
Versions: 1 2 3 4 5 6 7 8 9 10 11 12 13 14 15 16 17 18 19 20 21 22 23 24 25 26 27 28 29 30 31 32 33 34 35 36 37 38 39 40 41 42 43 44 45 46 47 48 49 50
064
FTUS42 KRAH 240654 AAC
TAFRDU
TAF AMD
KRDU 240654Z 2407/2506 31003KT 5SM BR SCT003 BKN007 OVC050
     FM240900 VRB04KT 5SM BR BKN003 BKN015
     FM241500 14006KT P6SM BKN015
     FM241700 17010KT P6SM VCSH BKN025
      TEMPO 2419/2423 2SM +TSRA BR SCT025 BKN035CB BKN150
     FM242300 20009KT 5SM -SHRA BR SCT008 BKN050
     FM250400 22008KT P6SM BKN008=

USA.gov is the U.S. government's official web portal to all federal, state and local government web resources and services.